createdAt,value
2019-05-30T00:02:00.383Z,2.05
2019-05-30T00:04:26.864Z,2.37
2019-05-30T00:06:54.327Z,1.82
2019-05-30T00:09:20.782Z,1.60
2019-05-30T00:11:47.171Z,1.50
2019-05-30T00:14:13.685Z,2.95
2019-05-30T00:16:40.085Z,1.85
2019-05-30T00:19:06.485Z,2.30
2019-05-30T00:21:32.909Z,2.02
2019-05-30T00:23:59.959Z,2.30
2019-05-30T00:26:26.433Z,2.15
2019-05-30T00:28:52.935Z,2.22
2019-05-30T00:31:19.303Z,3.33
2019-05-30T00:33:45.703Z,4.35
2019-05-30T00:36:12.206Z,2.77
2019-05-30T00:38:38.675Z,2.47
2019-05-30T00:41:06.203Z,2.05
2019-05-30T00:43:32.693Z,2.90
2019-05-30T00:45:59.976Z,3.35
2019-05-30T00:48:26.379Z,3.22
2019-05-30T00:50:52.804Z,3.05
2019-05-30T00:53:19.216Z,4.33
2019-05-30T00:55:45.665Z,2.45
2019-05-30T00:58:12.123Z,2.45
2019-05-30T01:00:43.285Z,4.10
2019-05-30T01:03:08.825Z,3.02
2019-05-30T01:05:34.996Z,4.30
2019-05-30T01:08:01.479Z,3.25
2019-05-30T01:10:27.933Z,2.55
2019-05-30T01:12:54.353Z,3.98
2019-05-30T01:15:21.861Z,2.98
2019-05-30T01:17:49.361Z,3.72
2019-05-30T01:20:16.779Z,3.20
2019-05-30T01:22:43.157Z,5.50
2019-05-30T01:25:09.845Z,3.35
2019-05-30T01:27:36.838Z,3.42
2019-05-30T01:30:07.913Z,3.52
2019-05-30T01:32:35.581Z,2.62
2019-05-30T01:35:03.731Z,3.55
2019-05-30T01:37:30.706Z,4.87
2019-05-30T01:39:57.667Z,4.37
2019-05-30T01:42:24.122Z,2.95
2019-05-30T01:44:50.617Z,2.52
2019-05-30T01:47:17.011Z,2.60
2019-05-30T01:49:43.434Z,2.98
2019-05-30T01:52:09.806Z,3.15
2019-05-30T01:54:37.406Z,2.33
2019-05-30T01:57:04.684Z,3.55
2019-05-30T01:59:31.129Z,2.75
2019-05-30T02:01:58.767Z,2.87
2019-05-30T02:04:25.289Z,2.75
2019-05-30T02:06:51.664Z,4.30
2019-05-30T02:09:18.168Z,5.12
2019-05-30T02:11:44.622Z,4.05
2019-05-30T02:14:11.112Z,2.90
2019-05-30T02:16:37.621Z,3.30
2019-05-30T02:19:04.207Z,3.10
2019-05-30T02:21:30.557Z,3.35
2019-05-30T02:23:56.937Z,2.40
2019-05-30T02:26:23.354Z,3.08
2019-05-30T02:28:50.004Z,2.62
2019-05-30T02:31:27.707Z,2.77
2019-05-30T02:33:44.631Z,2.67
2019-05-30T02:36:12.676Z,3.42
2019-05-30T02:38:39.234Z,1.82
2019-05-30T02:41:07.478Z,2.02
2019-05-30T02:43:34.047Z,1.60
2019-05-30T02:46:00.968Z,3.33
2019-05-30T02:48:27.343Z,1.80
2019-05-30T02:50:53.713Z,3.77
2019-05-30T02:53:20.160Z,3.40
2019-05-30T02:55:46.562Z,2.70
2019-05-30T02:58:13.269Z,2.95
2019-05-30T03:00:39.981Z,3.12
2019-05-30T03:03:09.839Z,3.12
2019-05-30T03:05:36.230Z,1.90
2019-05-30T03:08:04.911Z,2.37
2019-05-30T03:10:31.417Z,2.30
2019-05-30T03:12:58.196Z,2.27
2019-05-30T03:15:24.947Z,2.92
2019-05-30T03:17:51.368Z,2.33
2019-05-30T03:20:22.741Z,2.35
2019-05-30T03:22:46.409Z,2.45
2019-05-30T03:25:15.791Z,2.52
2019-05-30T03:27:41.298Z,2.87
2019-05-30T03:30:16.173Z,3.83
2019-05-30T03:33:03.757Z,2.22
2019-05-30T03:35:11.034Z,2.08
2019-05-30T03:37:33.622Z,1.95
2019-05-30T03:39:59.994Z,3.00
2019-05-30T03:42:26.423Z,2.00
2019-05-30T03:44:52.810Z,2.10
2019-05-30T03:47:20.794Z,2.00
2019-05-30T03:49:49.118Z,1.40
2019-05-30T03:52:17.402Z,2.02
2019-05-30T03:54:45.017Z,1.75
2019-05-30T03:57:18.206Z,2.37
2019-05-30T03:59:50.968Z,2.12
2019-05-30T04:02:57.113Z,2.08
2019-05-30T04:05:28.148Z,1.80
2019-05-30T04:07:56.661Z,2.00
2019-05-30T04:10:26.888Z,1.98
2019-05-30T04:13:12.890Z,2.62
2019-05-30T04:15:40.237Z,1.47
2019-05-30T04:18:07.039Z,3.80
2019-05-30T04:20:33.734Z,1.67
2019-05-30T04:23:00.168Z,2.10
2019-05-30T04:25:26.744Z,2.35
2019-05-30T04:27:53.254Z,3.77
2019-05-30T04:30:19.808Z,1.50
2019-05-30T04:32:46.234Z,2.55
2019-05-30T04:35:14.539Z,2.42
2019-05-30T04:37:40.838Z,1.92
2019-05-30T04:40:08.543Z,1.98
2019-05-30T04:42:35.016Z,1.42
2019-05-30T04:45:01.755Z,1.55
2019-05-30T04:47:28.135Z,1.85
2019-05-30T04:49:56.166Z,2.30
2019-05-30T04:52:24.983Z,2.00
2019-05-30T04:54:51.546Z,1.35
2019-05-30T04:57:19.266Z,1.98
2019-05-30T04:59:46.173Z,1.30
2019-05-30T05:02:13.659Z,3.10
2019-05-30T05:04:40.818Z,1.77
2019-05-30T05:07:07.187Z,2.15
2019-05-30T05:09:33.601Z,2.67
2019-05-30T05:12:01.011Z,1.82
2019-05-30T05:14:27.412Z,1.57
2019-05-30T05:16:53.815Z,1.55
2019-05-30T05:19:22.277Z,2.40
2019-05-30T05:21:48.435Z,1.20
2019-05-30T05:24:15.309Z,1.67
2019-05-30T05:26:41.905Z,1.60
2019-05-30T05:29:08.276Z,1.20
2019-05-30T05:31:34.675Z,1.75
2019-05-30T05:34:01.095Z,1.10
2019-05-30T05:36:27.492Z,1.98
2019-05-30T05:38:53.874Z,1.50
2019-05-30T05:41:20.305Z,1.90
2019-05-30T05:43:46.697Z,2.33
2019-05-30T05:46:13.153Z,2.05
2019-05-30T05:48:39.549Z,1.70
2019-05-30T05:51:06.192Z,1.72
2019-05-30T05:53:32.583Z,1.42
2019-05-30T05:55:58.993Z,1.60
2019-05-30T05:58:26.495Z,1.65
2019-05-30T06:00:53.015Z,1.87
2019-05-30T06:03:20.396Z,1.98
2019-05-30T06:05:53.101Z,2.27
2019-05-30T06:08:15.047Z,1.67
2019-05-30T06:10:41.861Z,1.98
2019-05-30T06:13:08.282Z,2.12
2019-05-30T06:15:34.668Z,2.72
2019-05-30T06:18:01.223Z,2.35
2019-05-30T06:20:27.653Z,2.35
2019-05-30T06:22:54.161Z,2.30
2019-05-30T06:25:24.058Z,1.67
2019-05-30T06:27:48.748Z,2.80
2019-05-30T06:30:15.653Z,3.02
2019-05-30T06:32:42.027Z,2.40
2019-05-30T06:35:08.779Z,2.25
2019-05-30T06:37:35.243Z,2.33
2019-05-30T06:40:02.133Z,2.85
2019-05-30T06:42:30.214Z,2.92
2019-05-30T06:44:57.211Z,2.12
2019-05-30T06:47:24.389Z,2.37
2019-05-30T06:49:50.803Z,1.98
2019-05-30T06:52:17.343Z,2.62
2019-05-30T06:54:43.872Z,2.05
2019-05-30T06:57:10.236Z,2.50
2019-05-30T06:59:36.654Z,2.27
2019-05-30T07:02:03.469Z,3.08
2019-05-30T07:04:48.955Z,2.60
2019-05-30T07:06:58.274Z,1.95
2019-05-30T07:09:24.904Z,2.47
2019-05-30T07:11:51.371Z,2.87
2019-05-30T07:14:17.752Z,2.75
2019-05-30T07:16:44.168Z,2.00
2019-05-30T07:19:10.620Z,1.60
2019-05-30T07:21:37.024Z,3.37
2019-05-30T07:24:03.698Z,2.00
2019-05-30T07:26:30.117Z,2.62
2019-05-30T07:28:56.516Z,2.90
2019-05-30T07:31:24.007Z,3.08
2019-05-30T07:33:50.829Z,2.55
2019-05-30T07:36:17.288Z,2.67
2019-05-30T07:38:43.663Z,3.80
2019-05-30T07:41:10.163Z,3.27
2019-05-30T07:43:36.541Z,3.62
2019-05-30T07:46:03.058Z,2.50
2019-05-30T07:48:30.193Z,2.67
2019-05-30T07:50:56.552Z,3.27
2019-05-30T07:53:23.061Z,2.52
2019-05-30T07:55:49.447Z,2.52
2019-05-30T07:58:17.248Z,2.12
2019-05-30T08:00:43.758Z,3.17
2019-05-30T08:03:10.135Z,3.00
2019-05-30T08:05:37.571Z,4.75
2019-05-30T08:08:04.096Z,3.05
2019-05-30T08:10:30.485Z,4.35
2019-05-30T08:12:56.883Z,3.98
2019-05-30T08:15:23.928Z,3.42
2019-05-30T08:17:51.330Z,3.30
2019-05-30T08:20:17.810Z,3.95
2019-05-30T08:22:44.248Z,4.83
2019-05-30T08:25:10.771Z,3.90
2019-05-30T08:27:38.529Z,4.47
2019-05-30T08:30:07.887Z,3.77
2019-05-30T08:32:34.574Z,3.75
2019-05-30T08:35:01.178Z,3.98
2019-05-30T08:37:28.827Z,4.58
2019-05-30T08:39:55.323Z,2.92
2019-05-30T08:42:21.694Z,4.37
2019-05-30T08:44:48.125Z,3.55
2019-05-30T08:47:14.496Z,4.03
2019-05-30T08:49:41.080Z,3.33
2019-05-30T08:52:08.493Z,4.62
2019-05-30T08:54:34.973Z,4.12
2019-05-30T08:57:01.356Z,4.42
2019-05-30T08:59:27.789Z,5.37
2019-05-30T09:01:54.179Z,4.83
2019-05-30T09:04:20.577Z,3.77
2019-05-30T09:06:47.087Z,4.85
2019-05-30T09:09:13.512Z,5.00
2019-05-30T09:11:40.593Z,4.10
2019-05-30T09:14:07.056Z,4.12
2019-05-30T09:16:33.438Z,5.10
2019-05-30T09:18:59.832Z,4.35
2019-05-30T09:21:26.282Z,5.33
2019-05-30T09:23:56.115Z,5.15
2019-05-30T09:26:21.134Z,4.42
2019-05-30T09:28:48.304Z,5.37
2019-05-30T09:31:14.656Z,5.67
2019-05-30T09:33:42.588Z,5.60
2019-05-30T09:36:13.352Z,5.62
2019-05-30T09:38:37.419Z,4.15
2019-05-30T09:41:03.888Z,4.40
2019-05-30T09:43:30.290Z,5.00
2019-05-30T09:45:56.676Z,5.47
2019-05-30T09:48:23.284Z,4.65
2019-05-30T09:50:51.037Z,4.78
2019-05-30T09:53:18.578Z,5.33
2019-05-30T09:55:46.603Z,5.12
2019-05-30T09:58:13.043Z,6.55
2019-05-30T10:00:39.737Z,4.15
2019-05-30T10:03:06.127Z,4.75
2019-05-30T10:05:32.787Z,3.92
2019-05-30T10:07:59.302Z,4.70
2019-05-30T10:10:25.978Z,5.25
2019-05-30T10:12:52.775Z,5.42
2019-05-30T10:15:20.660Z,5.58
2019-05-30T10:17:48.146Z,3.98
2019-05-30T10:20:17.560Z,4.85
2019-05-30T10:22:44.499Z,5.72
2019-05-30T10:25:12.983Z,5.53
2019-05-30T10:27:39.370Z,6.37
2019-05-30T10:30:07.903Z,5.72
2019-05-30T10:32:34.405Z,4.72
2019-05-30T10:35:00.922Z,6.15
2019-05-30T10:37:27.358Z,4.33
2019-05-30T10:39:58.673Z,4.45
2019-05-30T10:42:21.968Z,5.15
2019-05-30T10:44:49.923Z,5.37
2019-05-30T10:47:16.622Z,6.20
2019-05-30T10:49:43.013Z,4.53
2019-05-30T10:52:09.591Z,4.85
2019-05-30T10:54:35.982Z,5.30
2019-05-30T10:57:03.968Z,4.28
2019-05-30T10:59:30.508Z,4.58
2019-05-30T11:01:57.024Z,4.83
2019-05-30T11:04:23.546Z,5.25
2019-05-30T11:07:09.655Z,4.95
2019-05-30T11:09:26.788Z,4.67
2019-05-30T11:11:53.174Z,5.60
2019-05-30T11:14:19.597Z,5.08
2019-05-30T11:16:47.047Z,4.55
2019-05-30T11:19:14.652Z,5.03
2019-05-30T11:21:41.089Z,5.33
2019-05-30T11:24:07.472Z,4.00
2019-05-30T11:26:33.892Z,5.15
2019-05-30T11:29:00.306Z,5.00
2019-05-30T11:31:26.697Z,4.37
2019-05-30T11:33:53.142Z,5.10
2019-05-30T11:36:19.659Z,6.05
2019-05-30T11:38:46.154Z,5.35
2019-05-30T11:41:12.545Z,5.65
2019-05-30T11:43:38.959Z,6.35
2019-05-30T11:46:05.404Z,4.97
2019-05-30T11:48:31.873Z,5.03
2019-05-30T11:50:58.270Z,7.53
2019-05-30T11:53:24.734Z,4.87
2019-05-30T11:55:52.244Z,5.42
2019-05-30T11:58:19.771Z,6.17
2019-05-30T12:00:46.491Z,6.15
2019-05-30T12:03:12.952Z,6.53
2019-05-30T12:05:39.332Z,6.85
2019-05-30T12:08:05.850Z,5.75
2019-05-30T12:10:32.654Z,5.25
2019-05-30T12:12:59.486Z,5.08
2019-05-30T12:15:26.313Z,6.78
2019-05-30T12:17:53.262Z,7.60
2019-05-30T12:20:20.026Z,6.08
2019-05-30T12:22:46.437Z,6.55
2019-05-30T12:25:13.820Z,6.70
2019-05-30T12:27:40.282Z,6.17
2019-05-30T12:30:07.527Z,5.78
2019-05-30T12:32:34.007Z,7.40
2019-05-30T12:35:00.523Z,6.55
2019-05-30T12:37:27.013Z,5.58
2019-05-30T12:39:54.424Z,5.87
2019-05-30T12:42:20.868Z,6.78
2019-05-30T12:44:47.292Z,6.33
2019-05-30T12:47:13.695Z,5.65
2019-05-30T12:49:40.098Z,5.75
2019-05-30T12:52:06.563Z,5.40
2019-05-30T12:54:32.944Z,5.55
2019-05-30T12:57:00.426Z,7.03
2019-05-30T12:59:27.040Z,6.12
2019-05-30T13:01:54.669Z,5.92
2019-05-30T13:04:21.425Z,6.00
2019-05-30T13:06:47.879Z,5.35
2019-05-30T13:09:14.340Z,5.10
2019-05-30T13:11:40.746Z,5.35
2019-05-30T13:14:07.270Z,5.45
2019-05-30T13:16:33.697Z,4.83
2019-05-30T13:19:00.179Z,6.47
2019-05-30T13:21:26.746Z,6.53
2019-05-30T13:23:53.144Z,6.10
2019-05-30T13:26:19.541Z,5.83
2019-05-30T13:28:45.985Z,6.25
2019-05-30T13:31:12.371Z,7.03
2019-05-30T13:33:38.949Z,6.05
2019-05-30T13:36:05.425Z,5.75
2019-05-30T13:38:31.816Z,8.20
2019-05-30T13:40:59.291Z,5.95
2019-05-30T13:43:27.859Z,5.72
2019-05-30T13:45:54.033Z,6.28
2019-05-30T13:48:20.514Z,6.37
2019-05-30T13:50:47.215Z,6.58
2019-05-30T13:53:13.595Z,5.55
2019-05-30T13:55:39.996Z,5.85
2019-05-30T13:58:07.735Z,6.08
2019-05-30T14:00:34.360Z,6.45
2019-05-30T14:03:02.159Z,6.85
2019-05-30T14:05:28.795Z,5.70
2019-05-30T14:07:55.167Z,5.85
2019-05-30T14:10:21.757Z,6.33
2019-05-30T14:12:48.321Z,5.55
2019-05-30T14:15:16.037Z,5.67
2019-05-30T14:17:42.513Z,6.50
2019-05-30T14:20:11.190Z,6.12
2019-05-30T14:22:37.890Z,6.07
2019-05-30T14:25:07.738Z,5.30
2019-05-30T14:27:34.234Z,5.42
2019-05-30T14:30:00.625Z,5.22
2019-05-30T14:32:27.001Z,6.70
2019-05-30T14:34:53.471Z,6.22
2019-05-30T14:37:19.881Z,6.80
2019-05-30T14:39:46.262Z,5.33
2019-05-30T14:42:13.303Z,6.12
2019-05-30T14:44:39.677Z,5.40
2019-05-30T14:47:06.368Z,6.10
2019-05-30T14:49:32.922Z,6.00
2019-05-30T14:51:59.358Z,5.53
2019-05-30T14:54:25.759Z,5.05
2019-05-30T14:56:52.219Z,5.00
2019-05-30T14:59:18.603Z,5.28
2019-05-30T15:01:45.008Z,5.03
2019-05-30T15:04:11.701Z,6.08
2019-05-30T15:06:38.100Z,5.22
2019-05-30T15:09:15.350Z,5.37
2019-05-30T15:11:33.567Z,5.08
2019-05-30T15:13:59.967Z,5.50
2019-05-30T15:16:26.372Z,4.42
2019-05-30T15:18:52.781Z,5.05
2019-05-30T15:21:19.243Z,4.33
2019-05-30T15:23:45.675Z,5.00
2019-05-30T15:26:12.226Z,4.50
2019-05-30T15:28:38.665Z,5.17
2019-05-30T15:31:06.471Z,4.72
2019-05-30T15:33:33.140Z,4.30
2019-05-30T15:35:59.547Z,4.62
2019-05-30T15:38:26.751Z,4.40
2019-05-30T15:40:53.164Z,4.58
2019-05-30T15:43:19.575Z,4.20
2019-05-30T15:45:45.969Z,4.45
2019-05-30T15:48:12.476Z,4.53
2019-05-30T15:50:38.856Z,5.30
2019-05-30T15:53:05.312Z,4.72
2019-05-30T15:55:35.561Z,5.28
2019-05-30T15:58:01.914Z,6.45
2019-05-30T16:00:28.588Z,5.42
2019-05-30T16:02:54.997Z,7.00
2019-05-30T16:05:21.482Z,6.08
2019-05-30T16:07:47.867Z,5.37
2019-05-30T16:10:14.839Z,5.45
2019-05-30T16:12:41.360Z,6.30
2019-05-30T16:15:07.947Z,5.45
2019-05-30T16:17:34.521Z,6.50
2019-05-30T16:20:00.917Z,7.08
2019-05-30T16:22:27.313Z,6.55
2019-05-30T16:24:53.832Z,7.28
2019-05-30T16:27:20.276Z,6.30
2019-05-30T16:29:46.771Z,6.37
2019-05-30T16:32:13.791Z,6.70
2019-05-30T16:34:40.207Z,6.45
2019-05-30T16:37:06.643Z,7.03
2019-05-30T16:39:33.077Z,6.30
2019-05-30T16:41:59.607Z,6.20
2019-05-30T16:44:26.772Z,6.55
2019-05-30T16:46:53.163Z,5.50
2019-05-30T16:49:21.096Z,5.85
2019-05-30T16:51:47.501Z,6.55
2019-05-30T16:54:15.104Z,5.75
2019-05-30T16:56:41.556Z,5.83
2019-05-30T16:59:08.074Z,5.35
2019-05-30T17:01:34.558Z,5.70
2019-05-30T17:04:00.966Z,4.65
2019-05-30T17:06:28.419Z,5.25
2019-05-30T17:08:54.829Z,4.83
2019-05-30T17:11:21.430Z,4.33
2019-05-30T17:13:47.822Z,5.00
2019-05-30T17:16:14.338Z,4.33
2019-05-30T17:18:40.725Z,5.12
2019-05-30T17:21:08.124Z,4.08
2019-05-30T17:23:34.551Z,5.47
2019-05-30T17:26:01.349Z,4.97
2019-05-30T17:28:28.721Z,4.22
2019-05-30T17:30:55.193Z,4.42
2019-05-30T17:33:22.404Z,4.05
2019-05-30T17:35:49.863Z,3.67
2019-05-30T17:38:16.290Z,4.12
2019-05-30T17:40:45.519Z,4.45
2019-05-30T17:43:10.925Z,3.83
2019-05-30T17:45:37.424Z,4.65
2019-05-30T17:48:16.137Z,3.05
2019-05-30T17:50:32.277Z,4.72
2019-05-30T17:52:58.778Z,4.28
2019-05-30T17:55:26.024Z,3.40
2019-05-30T17:57:52.503Z,3.62
2019-05-30T18:00:20.393Z,3.30
2019-05-30T18:02:46.969Z,2.92
2019-05-30T18:05:13.767Z,3.12
2019-05-30T18:07:40.195Z,4.58
2019-05-30T18:10:08.624Z,3.00
2019-05-30T18:12:35.116Z,4.05
2019-05-30T18:15:09.126Z,4.03
2019-05-30T18:17:38.791Z,3.62
2019-05-30T18:22:32.984Z,3.55
2019-05-30T18:24:59.482Z,2.62
2019-05-30T18:27:25.977Z,2.75
2019-05-30T18:29:52.407Z,3.27
2019-05-30T18:32:18.839Z,3.52
2019-05-30T18:34:45.327Z,2.90
2019-05-30T18:37:11.930Z,3.00
2019-05-30T18:39:38.315Z,3.12
2019-05-30T18:42:05.061Z,2.92
2019-05-30T18:44:34.393Z,3.47
2019-05-30T18:47:00.899Z,2.72
2019-05-30T18:49:27.340Z,2.77
2019-05-30T18:51:53.787Z,2.40
2019-05-30T18:54:20.327Z,2.83
2019-05-30T18:56:46.777Z,3.12
2019-05-30T18:59:13.203Z,2.70
2019-05-30T19:01:39.739Z,3.35
2019-05-30T19:04:06.419Z,3.85
2019-05-30T19:06:33.804Z,3.10
2019-05-30T19:09:00.310Z,2.75
2019-05-30T19:11:30.971Z,3.17
2019-05-30T19:13:54.965Z,3.17
2019-05-30T19:16:21.352Z,2.72
2019-05-30T19:18:47.751Z,2.92
2019-05-30T19:21:14.168Z,2.58
2019-05-30T19:23:40.692Z,2.67
2019-05-30T19:26:07.083Z,2.45
2019-05-30T19:28:34.571Z,2.20
2019-05-30T19:31:01.036Z,2.40
2019-05-30T19:33:28.732Z,2.27
2019-05-30T19:35:55.304Z,3.33
2019-05-30T19:38:21.768Z,2.02
2019-05-30T19:40:48.189Z,2.20
2019-05-30T19:43:14.587Z,2.10
2019-05-30T19:45:41.122Z,3.02
2019-05-30T19:48:07.489Z,2.50
2019-05-30T19:50:34.655Z,3.27
2019-05-30T19:53:01.165Z,2.45
2019-05-30T19:55:28.998Z,2.17
2019-05-30T19:57:55.450Z,2.52
2019-05-30T20:00:22.269Z,3.17
2019-05-30T20:02:48.788Z,2.20
2019-05-30T20:05:15.475Z,2.30
2019-05-30T20:07:42.125Z,2.92
2019-05-30T20:10:10.047Z,3.62
2019-05-30T20:12:37.072Z,3.08
2019-05-30T20:15:11.951Z,2.17
2019-05-30T20:17:39.634Z,2.58
2019-05-30T20:20:07.669Z,3.17
2019-05-30T20:22:34.193Z,2.92
2019-05-30T20:25:00.612Z,2.20
2019-05-30T20:27:27.002Z,2.52
2019-05-30T20:29:53.555Z,3.02
2019-05-30T20:32:19.943Z,4.00
2019-05-30T20:34:47.122Z,3.25
2019-05-30T20:37:13.620Z,2.30
2019-05-30T20:39:40.834Z,2.67
2019-05-30T20:42:18.711Z,3.25
2019-05-30T20:44:35.422Z,2.80
2019-05-30T20:47:03.454Z,2.40
2019-05-30T20:49:29.964Z,2.90
2019-05-30T20:51:56.506Z,3.05
2019-05-30T20:54:22.935Z,2.75
2019-05-30T20:56:51.282Z,2.55
2019-05-30T20:59:17.516Z,2.40
2019-05-30T21:01:43.951Z,2.30
2019-05-30T21:04:10.553Z,2.35
2019-05-30T21:06:37.245Z,2.72
2019-05-30T21:09:05.920Z,2.70
2019-05-30T21:11:34.218Z,2.67
2019-05-30T21:14:01.499Z,2.25
2019-05-30T21:16:28.500Z,3.15
2019-05-30T21:18:56.752Z,2.47
2019-05-30T21:21:23.166Z,3.17
2019-05-30T21:23:49.610Z,2.58
2019-05-30T21:26:16.171Z,2.92
2019-05-30T21:28:43.119Z,2.90
2019-05-30T21:31:10.706Z,2.80
2019-05-30T21:33:37.614Z,3.72
2019-05-30T21:36:04.362Z,3.62
2019-05-30T21:38:30.830Z,2.98
2019-05-30T21:40:57.272Z,2.72
2019-05-30T21:43:23.716Z,3.05
2019-05-30T21:45:50.142Z,2.20
2019-05-30T21:48:16.667Z,2.30
2019-05-30T21:50:45.971Z,2.67
2019-05-30T21:53:12.352Z,2.67
2019-05-30T21:55:39.605Z,2.40
2019-05-30T21:58:06.035Z,2.55
2019-05-30T22:01:03.563Z,2.65
2019-05-30T22:03:29.950Z,3.37
2019-05-30T22:05:56.344Z,4.28
2019-05-30T22:08:22.920Z,2.87
2019-05-30T22:10:49.564Z,2.60
2019-05-30T22:13:16.068Z,3.15
2019-05-30T22:15:43.651Z,3.08
2019-05-30T22:18:10.156Z,2.90
2019-05-30T22:20:36.641Z,3.58
2019-05-30T22:23:03.175Z,3.17
2019-05-30T22:25:29.550Z,3.05
2019-05-30T22:27:55.966Z,3.08
2019-05-30T22:30:22.588Z,3.33
2019-05-30T22:32:49.010Z,3.05
2019-05-30T22:35:15.597Z,2.85
2019-05-30T22:37:42.762Z,3.27
2019-05-30T22:40:09.621Z,3.62
2019-05-30T22:42:36.121Z,4.47
2019-05-30T22:45:04.572Z,2.58
2019-05-30T22:47:31.098Z,3.20
2019-05-30T22:49:57.480Z,3.65
2019-05-30T22:52:24.044Z,2.42
2019-05-30T22:54:51.243Z,3.60
2019-05-30T22:57:17.742Z,3.30
2019-05-30T22:59:44.697Z,4.10
2019-05-30T23:02:11.127Z,4.67
2019-05-30T23:04:37.633Z,2.85
2019-05-30T23:07:04.038Z,3.87
2019-05-30T23:09:30.426Z,3.75
2019-05-30T23:11:56.854Z,2.83
2019-05-30T23:14:23.444Z,3.20
2019-05-30T23:16:50.181Z,3.47
2019-05-30T23:19:16.858Z,4.15
2019-05-30T23:21:43.293Z,3.98
2019-05-30T23:24:10.085Z,6.30
2019-05-30T23:26:36.574Z,3.70
2019-05-30T23:29:03.217Z,3.67
2019-05-30T23:31:29.707Z,2.60
2019-05-30T23:33:56.482Z,4.40
2019-05-30T23:36:22.886Z,3.27
2019-05-30T23:38:50.714Z,5.92
2019-05-30T23:41:17.228Z,2.95
2019-05-30T23:43:56.739Z,3.45
2019-05-30T23:46:14.954Z,3.08
2019-05-30T23:48:41.401Z,4.20
2019-05-30T23:51:07.790Z,4.70
2019-05-30T23:53:34.186Z,2.45
2019-05-30T23:56:00.683Z,2.55
2019-05-30T23:58:27.199Z,2.75
